images/hfc/images/print_logo.png
Drucken
[Quelle: ADDS]
METAR
EDDW 250150Z 30007KT 9999 BKN018 11/08 Q1015 =
TAF
EDDW 242300Z 2500/2524 28005KT 9999 SCT015 BKN020 PROB30 TEMPO 2500/2506 BKN012 BECMG 2506/2508 29010KT BECMG 2518/2520 VRB03KT =
BCMT / ECET: 02:19 / 20:24 UTC (EDDW 2019-05-25)

printlogo=no